Time;durP1;ratioP1;P1;durP2;ratioP2;P2;SDS_P1;SDS_P2;PMS_P1;PMS_P2;Temp;Humidity;BMP_temperature;BMP_pressure;BME280_temperature;BME280_humidity;BME280_pressure;Samples;Min_cycle;Max_cycle;Signal;HPM_P1;HPM_P2
2022/07/27 00:02:17;;;;;;;15.85;14.45;;;;;;;19.22;100.00;99731.72;5034781;28;20043;-83
2022/07/27 00:04:42;;;;;;;15.50;14.10;;;;;;;19.29;100.00;99736.84;5052823;28;20052;-83
2022/07/27 00:07:08;;;;;;;15.35;13.95;;;;;;;19.29;100.00;99741.72;5032830;28;20120;-84
2022/07/27 00:09:33;;;;;;;15.77;14.27;;;;;;;19.18;100.00;99722.75;5041951;28;20406;-84
2022/07/27 00:11:59;;;;;;;16.33;14.82;;;;;;;19.11;100.00;99728.84;5042717;28;20045;-83
2022/07/27 00:14:25;;;;;;;16.33;14.88;;;;;;;19.23;100.00;99736.06;5033094;28;20047;-83
2022/07/27 00:16:50;;;;;;;16.45;14.85;;;;;;;19.27;100.00;99736.59;5001914;28;20080;-83
2022/07/27 00:19:16;;;;;;;17.15;15.18;;;;;;;19.23;100.00;99722.00;5033574;28;20044;-83
2022/07/27 00:21:41;;;;;;;16.38;14.88;;;;;;;19.27;100.00;99733.78;5014745;28;20558;-82
2022/07/27 00:24:07;;;;;;;15.85;14.35;;;;;;;19.25;100.00;99733.50;5035638;28;20091;-83
2022/07/27 00:26:33;;;;;;;16.60;15.00;;;;;;;19.21;100.00;99735.03;5033823;28;20772;-83
2022/07/27 00:28:58;;;;;;;15.82;14.32;;;;;;;19.10;100.00;99725.28;5033484;28;20090;-83
2022/07/27 00:31:24;;;;;;;16.98;15.43;;;;;;;19.16;100.00;99730.94;5050165;28;20090;-83
2022/07/27 00:33:49;;;;;;;15.70;14.23;;;;;;;19.17;100.00;99718.38;5049197;28;20407;-82
2022/07/27 00:36:15;;;;;;;17.35;15.63;;;;;;;19.15;100.00;99717.38;5033286;28;20033;-83
2022/07/27 00:38:40;;;;;;;15.85;14.45;;;;;;;19.13;100.00;99717.84;5030436;28;20124;-83
2022/07/27 00:41:06;;;;;;;17.05;15.45;;;;;;;19.04;100.00;99715.28;5052174;28;20044;-83
2022/07/27 00:43:32;;;;;;;16.80;15.30;;;;;;;18.96;100.00;99719.84;5039974;28;20505;-83
2022/07/27 00:45:58;;;;;;;15.57;14.02;;;;;;;18.94;100.00;99716.75;5034437;28;20041;-83
2022/07/27 00:48:23;;;;;;;17.20;15.50;;;;;;;18.90;100.00;99713.38;5048894;28;20033;-83
2022/07/27 00:50:49;;;;;;;15.65;14.15;;;;;;;18.92;100.00;99724.91;5050527;28;20098;-83
2022/07/27 00:53:15;;;;;;;15.35;13.95;;;;;;;18.93;100.00;99726.44;5048485;28;20135;-83
2022/07/27 00:55:41;;;;;;;18.08;16.27;;;;;;;18.83;100.00;99723.06;5013793;28;20479;-83
2022/07/27 00:58:10;;;;;;;16.20;14.80;;;;;;;18.84;100.00;99729.47;5009206;28;20128;-83
2022/07/27 01:00:36;;;;;;;17.38;15.82;;;;;;;18.85;100.00;99714.13;5030498;28;20487;-83
2022/07/27 01:03:03;;;;;;;17.80;15.90;;;;;;;18.80;100.00;99707.22;5050194;28;20041;-83
2022/07/27 01:05:28;;;;;;;17.60;15.95;;;;;;;18.71;100.00;99710.22;5051268;28;20082;-83
2022/07/27 01:07:54;;;;;;;18.17;16.38;;;;;;;18.73;100.00;99701.28;5031445;28;20406;-83
2022/07/27 01:10:20;;;;;;;16.15;14.63;;;;;;;18.66;100.00;99699.72;5046705;28;20564;-83
2022/07/27 01:12:45;;;;;;;16.55;14.85;;;;;;;18.66;100.00;99687.69;5022234;28;20124;-83
2022/07/27 01:15:11;;;;;;;16.92;15.43;;;;;;;18.62;100.00;99716.78;5019135;28;20059;-83
2022/07/27 01:17:37;;;;;;;16.92;15.43;;;;;;;18.47;100.00;99695.72;5037318;28;20116;-83
2022/07/27 01:20:04;;;;;;;17.55;15.95;;;;;;;18.47;100.00;99704.91;5049631;28;20101;-83
2022/07/27 01:22:29;;;;;;;16.15;14.75;;;;;;;18.50;100.00;99700.31;5049636;28;20037;-83
2022/07/27 01:24:55;;;;;;;17.30;15.55;;;;;;;18.42;100.00;99708.44;5027464;28;20088;-83
2022/07/27 01:27:21;;;;;;;17.50;15.80;;;;;;;18.35;100.00;99700.47;5027523;28;20037;-83
2022/07/27 01:29:47;;;;;;;17.20;15.50;;;;;;;18.42;100.00;99714.06;5031165;28;20410;-83
2022/07/27 01:32:13;;;;;;;15.65;14.13;;;;;;;18.44;100.00;99713.56;5030351;28;20124;-83
2022/07/27 01:34:38;;;;;;;16.10;14.55;;;;;;;18.41;100.00;99715.31;5030219;28;20590;-83
2022/07/27 01:37:04;;;;;;;17.35;15.70;;;;;;;18.38;100.00;99710.72;5030015;28;20046;-83
2022/07/27 01:39:30;;;;;;;17.23;15.40;;;;;;;18.28;100.00;99708.59;5030282;28;20072;-82
2022/07/27 01:41:56;;;;;;;16.20;14.70;;;;;;;18.24;100.00;99708.78;5028683;28;20513;-83
2022/07/27 01:44:22;;;;;;;16.05;14.55;;;;;;;18.27;100.00;99710.63;5030300;28;20052;-83
2022/07/27 01:46:48;;;;;;;16.50;14.98;;;;;;;18.16;100.00;99713.31;5027681;28;20041;-83
2022/07/27 01:49:13;;;;;;;16.05;14.65;;;;;;;18.00;100.00;99709.09;5013555;28;20042;-83
2022/07/27 01:51:39;;;;;;;16.17;14.77;;;;;;;17.91;100.00;99716.91;5022589;28;20441;-83
2022/07/27 01:54:04;;;;;;;16.67;15.13;;;;;;;17.91;100.00;99708.50;5020782;28;20042;-82
2022/07/27 01:56:30;;;;;;;17.02;15.38;;;;;;;17.97;100.00;99703.69;5017399;28;20125;-82
2022/07/27 01:58:56;;;;;;;17.05;15.45;;;;;;;17.87;100.00;99683.47;5020979;28;20033;-83
2022/07/27 02:01:21;;;;;;;17.42;15.70;;;;;;;17.90;100.00;99690.91;5028255;28;20047;-82
2022/07/27 02:03:47;;;;;;;15.73;14.32;;;;;;;17.98;100.00;99700.41;5027459;28;20068;-83
2022/07/27 02:06:12;;;;;;;16.70;15.00;;;;;;;18.02;100.00;99697.38;5026958;28;20120;-82
2022/07/27 02:08:38;;;;;;;16.75;15.07;;;;;;;17.99;100.00;99684.34;5029177;28;20041;-83
2022/07/27 02:13:49;;;;;;;15.57;14.13;;;;;;;18.06;100.00;99692.31;5028441;28;20045;-83
2022/07/27 02:16:18;;;;;;;15.32;13.82;;;;;;;18.10;100.00;99679.59;5029004;28;20030;-83
2022/07/27 02:18:44;;;;;;;15.00;13.63;;;;;;;18.15;100.00;99694.97;5028865;28;20589;-82
2022/07/27 02:21:10;;;;;;;15.20;13.80;;;;;;;18.21;100.00;99695.75;5028163;28;20080;-83
2022/07/27 02:23:37;;;;;;;15.75;14.35;;;;;;;18.19;100.00;99698.31;5030053;28;20061;-83
2022/07/27 02:26:04;;;;;;;16.30;14.73;;;;;;;18.04;100.00;99698.41;5047217;28;20072;-83
2022/07/27 02:28:30;;;;;;;17.83;15.63;;;;;;;17.89;100.00;99688.56;5046881;28;20076;-83
2022/07/27 02:30:56;;;;;;;16.75;15.15;;;;;;;17.89;100.00;99688.56;5049998;28;20068;-82
2022/07/27 02:33:21;;;;;;;14.60;13.30;;;;;;;17.93;100.00;99695.50;5049558;28;20041;-82
2022/07/27 02:35:47;;;;;;;15.15;13.75;;;;;;;17.91;100.00;99694.47;5048379;28;20091;-82
2022/07/27 02:38:12;;;;;;;15.98;14.57;;;;;;;17.82;100.00;99686.22;5049536;28;20475;-82
2022/07/27 02:40:38;;;;;;;15.98;14.40;;;;;;;17.87;100.00;99685.50;5048528;28;20037;-82
2022/07/27 02:43:03;;;;;;;16.58;15.07;;;;;;;17.77;100.00;99678.50;5047533;28;20037;-82
2022/07/27 02:45:29;;;;;;;16.40;14.90;;;;;;;17.87;100.00;99694.69;5011661;28;20117;-83
2022/07/27 02:47:54;;;;;;;15.57;14.07;;;;;;;17.70;100.00;99668.50;5039695;28;20486;-82
2022/07/27 02:50:20;;;;;;;16.48;14.88;;;;;;;17.77;100.00;99684.13;5050106;28;20041;-82
2022/07/27 02:52:45;;;;;;;15.98;14.55;;;;;;;17.84;100.00;99692.88;5031106;28;20036;-83
2022/07/27 02:55:11;;;;;;;15.50;14.00;;;;;;;17.86;100.00;99692.38;5048959;28;20044;-83
2022/07/27 02:57:39;;;;;;;15.07;13.68;;;;;;;17.80;100.00;99695.13;5047757;28;20401;-82
2022/07/27 03:00:11;;;;;;;16.33;14.82;;;;;;;17.73;100.00;99706.00;5038951;28;20045;-83
2022/07/27 03:02:37;;;;;;;16.77;15.05;;;;;;;17.63;100.00;99703.34;5049569;28;20049;-82
2022/07/27 03:05:04;;;;;;;15.63;14.13;;;;;;;17.59;100.00;99697.19;5048665;28;20398;-82
2022/07/27 03:07:29;;;;;;;16.33;14.82;;;;;;;17.38;100.00;99670.44;5030791;28;20045;-83
2022/07/27 03:09:55;;;;;;;15.73;14.27;;;;;;;17.46;100.00;99693.97;5049048;28;20032;-83
2022/07/27 03:12:20;;;;;;;16.90;14.00;;;;;;;17.53;100.00;99704.75;5049015;28;20064;-82
2022/07/27 03:14:46;;;;;;;15.38;13.90;;;;;;;17.53;100.00;99698.38;5035428;28;20167;-82
2022/07/27 03:17:11;;;;;;;15.93;14.43;;;;;;;17.55;100.00;99695.88;5052461;28;20049;-82
2022/07/27 03:19:37;;;;;;;14.98;13.48;;;;;;;17.60;100.00;99701.53;5035259;28;20029;-82
2022/07/27 03:22:02;;;;;;;15.88;14.38;;;;;;;17.57;100.00;99710.94;5051725;28;20071;-82
2022/07/27 03:24:28;;;;;;;15.30;13.90;;;;;;;17.54;100.00;99697.13;5049709;28;20052;-82
2022/07/27 03:26:53;;;;;;;17.00;15.13;;;;;;;17.54;100.00;99700.69;5039277;28;20048;-82
2022/07/27 03:29:20;;;;;;;18.02;16.33;;;;;;;17.52;100.00;99702.44;5050004;28;20534;-82
2022/07/27 03:31:45;;;;;;;17.02;14.85;;;;;;;17.48;100.00;99699.06;5051357;28;20037;-82
2022/07/27 03:34:11;;;;;;;15.40;13.90;;;;;;;17.50;100.00;99708.56;5032593;28;20045;-82
2022/07/27 03:36:36;;;;;;;14.55;13.15;;;;;;;17.54;100.00;99705.53;5052137;28;20049;-82
2022/07/27 03:39:02;;;;;;;15.05;13.75;;;;;;;17.58;100.00;99700.50;5053114;28;20044;-82
2022/07/27 03:41:27;;;;;;;16.25;14.75;;;;;;;17.57;100.00;99698.94;5033502;28;20025;-82
2022/07/27 03:43:53;;;;;;;14.68;13.20;;;;;;;17.61;100.00;99694.69;5050250;28;20037;-82
2022/07/27 03:46:18;;;;;;;17.05;15.45;;;;;;;17.71;100.00;99704.47;5032414;28;20135;-82
2022/07/27 03:48:44;;;;;;;18.77;17.08;;;;;;;17.71;100.00;99693.25;5034112;28;20044;-83
2022/07/27 03:51:10;;;;;;;16.80;15.10;;;;;;;17.61;100.00;99683.47;5052083;28;20490;-83
2022/07/27 03:53:35;;;;;;;22.67;18.13;;;;;;;17.69;100.00;99692.22;5033930;28;20065;-83
2022/07/27 03:56:01;;;;;;;19.20;17.42;;;;;;;17.52;100.00;99692.00;5034372;28;20136;-83
2022/07/27 03:58:26;;;;;;;16.58;14.93;;;;;;;17.60;100.00;99704.34;5050865;28;20073;-83
2022/07/27 04:00:52;;;;;;;18.63;16.83;;;;;;;17.59;100.00;99702.81;5047895;28;20037;-82
2022/07/27 04:03:17;;;;;;;16.98;15.27;;;;;;;17.68;100.00;99705.47;5050758;28;20033;-82
2022/07/27 04:05:43;;;;;;;18.38;16.50;;;;;;;17.75;100.00;99700.69;5017649;28;20051;-83
2022/07/27 04:08:08;;;;;;;18.75;16.90;;;;;;;17.74;100.00;99699.16;5051644;28;20052;-82
2022/07/27 04:10:34;;;;;;;18.05;16.35;;;;;;;17.75;100.00;99711.91;5047268;28;20052;-82
2022/07/27 04:13:00;;;;;;;17.48;15.73;;;;;;;17.51;100.00;99690.44;5050016;28;20052;-82
2022/07/27 04:15:25;;;;;;;16.95;15.20;;;;;;;17.60;100.00;99709.19;5052427;28;20103;-82
2022/07/27 04:17:52;;;;;;;17.73;16.05;;;;;;;17.39;100.00;99705.59;5033047;28;20086;-82
2022/07/27 04:20:18;;;;;;;16.50;14.90;;;;;;;17.33;100.00;99701.19;5021664;28;20049;-82
2022/07/27 04:22:43;;;;;;;16.95;15.40;;;;;;;17.47;100.00;99706.72;5045634;28;20043;-82
2022/07/27 04:25:09;;;;;;;16.73;15.07;;;;;;;17.55;100.00;99705.03;5049641;28;20048;-82
2022/07/27 04:27:35;;;;;;;16.90;15.40;;;;;;;17.56;100.00;99709.38;5051917;28;20072;-83
2022/07/27 04:30:00;;;;;;;16.55;14.90;;;;;;;17.61;100.00;99705.91;5050468;28;20040;-83
2022/07/27 04:32:26;;;;;;;16.08;14.57;;;;;;;17.76;100.00;99722.63;5051084;28;20518;-83
2022/07/27 04:34:51;;;;;;;17.00;15.40;;;;;;;17.91;100.00;99714.13;5050691;28;20049;-82
2022/07/27 04:37:17;;;;;;;17.23;15.60;;;;;;;17.89;100.00;99702.59;5052150;28;20054;-82
2022/07/27 04:39:42;;;;;;;17.63;15.80;;;;;;;18.07;100.00;99724.75;5052113;28;20131;-83
2022/07/27 04:42:08;;;;;;;17.48;15.75;;;;;;;18.02;100.00;99722.63;5051047;28;20031;-83
2022/07/27 04:44:34;;;;;;;18.60;16.90;;;;;;;18.03;100.00;99727.00;5049528;28;20047;-83
2022/07/27 04:46:59;;;;;;;16.60;15.10;;;;;;;18.08;100.00;99724.22;5034967;28;20128;-83
2022/07/27 04:49:25;;;;;;;18.13;16.23;;;;;;;18.20;100.00;99727.91;5048292;28;20045;-83
2022/07/27 04:51:50;;;;;;;17.77;15.90;;;;;;;18.25;100.00;99724.38;5032444;28;20502;-83
2022/07/27 04:54:16;;;;;;;17.45;15.85;;;;;;;18.32;100.00;99734.41;5041222;28;20033;-83
2022/07/27 04:56:41;;;;;;;18.38;16.58;;;;;;;18.32;100.00;99729.53;5050158;28;20463;-83
2022/07/27 04:59:07;;;;;;;17.92;16.17;;;;;;;18.32;100.00;99737.22;5033522;28;20040;-84
2022/07/27 05:01:32;;;;;;;18.85;16.95;;;;;;;18.20;100.00;99719.47;5019904;28;20044;-83
2022/07/27 05:03:58;;;;;;;17.88;16.25;;;;;;;18.37;100.00;99742.09;5031482;28;20374;-83
2022/07/27 05:06:23;;;;;;;18.58;16.85;;;;;;;18.43;100.00;99734.50;5047423;28;20028;-83
2022/07/27 05:08:49;;;;;;;20.20;18.20;;;;;;;18.37;100.00;99750.50;4997796;28;20577;-83
2022/07/27 05:11:14;;;;;;;18.92;17.02;;;;;;;18.45;100.00;99743.94;5047083;28;20111;-83
2022/07/27 05:13:40;;;;;;;17.73;15.93;;;;;;;18.52;100.00;99749.13;5048099;28;20045;-82
2022/07/27 05:16:08;;;;;;;17.98;16.33;;;;;;;18.53;100.00;99739.44;5049468;28;20132;-83
2022/07/27 05:18:34;;;;;;;18.10;16.30;;;;;;;18.68;100.00;99749.78;5049626;28;20094;-83
2022/07/27 05:21:00;;;;;;;19.27;17.30;;;;;;;18.75;100.00;99760.56;5046564;28;20059;-82
2022/07/27 05:23:26;;;;;;;20.10;16.40;;;;;;;18.81;100.00;99752.94;5024962;28;20077;-82
2022/07/27 05:25:51;;;;;;;18.30;15.48;;;;;;;18.94;100.00;99753.28;5037386;28;20451;-82
2022/07/27 05:28:17;;;;;;;17.10;15.38;;;;;;;18.98;100.00;99751.00;5032193;28;20499;-82
2022/07/27 05:30:43;;;;;;;17.58;15.73;;;;;;;19.06;100.00;99758.47;5050363;28;20458;-82
2022/07/27 05:33:08;;;;;;;17.00;15.40;;;;;;;19.08;100.00;99749.53;5038367;28;20049;-82
2022/07/27 05:35:34;;;;;;;18.15;16.35;;;;;;;19.14;100.00;99750.31;5050402;28;20052;-82
2022/07/27 05:37:59;;;;;;;18.10;16.42;;;;;;;19.04;100.00;99738.53;5048380;28;20029;-83
2022/07/27 05:40:25;;;;;;;17.63;15.48;;;;;;;19.26;100.00;99746.31;5047789;28;20045;-82
2022/07/27 05:42:50;;;;;;;16.40;14.75;;;;;;;19.27;100.00;99747.06;5046621;28;20048;-83
2022/07/27 05:45:16;;;;;;;17.40;15.70;;;;;;;19.43;100.00;99752.81;5018409;28;20098;-83
2022/07/27 05:47:42;;;;;;;17.08;15.48;;;;;;;19.51;100.00;99758.72;5046461;28;20041;-83
2022/07/27 05:50:08;;;;;;;18.60;15.43;;;;;;;19.62;100.00;99755.19;5048795;28;20045;-83
2022/07/27 05:52:33;;;;;;;17.25;15.52;;;;;;;19.78;100.00;99751.66;5015945;28;20041;-83
2022/07/27 05:54:59;;;;;;;16.77;14.93;;;;;;;19.91;100.00;99752.72;5044818;28;20140;-83
2022/07/27 05:57:25;;;;;;;16.02;14.40;;;;;;;19.94;100.00;99751.69;5030408;28;20124;-83
2022/07/27 05:59:53;;;;;;;16.88;15.15;;;;;;;20.05;100.00;99755.81;5037945;28;20051;-83
2022/07/27 06:02:19;;;;;;;16.55;14.80;;;;;;;20.09;100.00;99745.09;5050935;28;20045;-83
2022/07/27 06:04:44;;;;;;;15.73;14.32;;;;;;;20.16;100.00;99756.59;5049024;28;20490;-83
2022/07/27 06:09:54;;;;;;;16.20;14.70;;;;;;;20.40;100.00;99748.47;5040742;28;20043;-83
2022/07/27 06:12:20;;;;;;;16.27;14.80;;;;;;;20.58;100.00;99757.69;5048158;28;20049;-83
2022/07/27 06:14:45;;;;;;;16.55;15.15;;;;;;;20.62;100.00;99761.81;5048083;28;20516;-83
2022/07/27 06:17:11;;;;;;;16.60;15.00;;;;;;;20.90;99.97;99767.41;5046075;28;20552;-83
2022/07/27 06:19:38;;;;;;;14.20;12.80;;;;;;;21.15;99.15;99760.72;5048214;28;20472;-84
2022/07/27 06:22:05;;;;;;;14.95;13.60;;;;;;;21.43;99.05;99766.28;5032367;28;20099;-86
2022/07/27 06:24:31;;;;;;;18.77;14.32;;;;;;;21.44;97.64;99773.44;5047784;28;20518;-85
2022/07/27 06:26:57;;;;;;;15.82;14.20;;;;;;;21.34;94.17;99775.81;5045958;28;20049;-85
2022/07/27 06:29:22;;;;;;;15.13;13.40;;;;;;;21.65;93.70;99774.66;5048091;28;20056;-86
2022/07/27 06:31:48;;;;;;;14.32;12.77;;;;;;;21.89;92.84;99782.50;5048838;28;20044;-86
2022/07/27 06:34:13;;;;;;;15.25;13.63;;;;;;;22.03;93.12;99780.66;5047747;28;20071;-85
2022/07/27 06:36:41;;;;;;;14.82;13.38;;;;;;;22.22;93.61;99781.56;5047587;28;20063;-86
2022/07/27 06:39:07;;;;;;;15.23;13.18;;;;;;;22.41;92.67;99770.38;5026927;28;20041;-86
2022/07/27 06:41:33;;;;;;;14.32;12.98;;;;;;;22.47;92.98;99768.28;5029240;28;20029;-85
2022/07/27 06:43:59;;;;;;;15.02;12.63;;;;;;;22.57;90.15;99777.97;5009917;28;20095;-86
2022/07/27 06:46:25;;;;;;;13.20;11.82;;;;;;;22.63;89.65;99767.38;5034024;28;20045;-86
2022/07/27 06:48:51;;;;;;;12.98;11.68;;;;;;;22.42;85.08;99771.91;5034447;28;20028;-85
2022/07/27 06:51:17;;;;;;;13.23;11.60;;;;;;;22.45;87.78;99773.69;5052802;28;20102;-86
2022/07/27 06:53:43;;;;;;;14.65;12.35;;;;;;;22.47;89.08;99774.72;5027176;28;20033;-86
2022/07/27 06:56:09;;;;;;;13.65;12.25;;;;;;;22.42;88.86;99771.91;5051595;28;20056;-86
2022/07/27 06:58:36;;;;;;;13.40;12.20;;;;;;;22.64;87.37;99771.75;5052584;28;20036;-86
2022/07/27 07:01:02;;;;;;;13.55;11.68;;;;;;;22.73;82.84;99768.59;5048070;28;20131;-86
2022/07/27 07:03:28;;;;;;;13.45;11.90;;;;;;;22.77;83.91;99774.72;5052232;28;20091;-86
2022/07/27 07:05:54;;;;;;;13.82;12.43;;;;;;;22.83;84.79;99786.78;5051170;28;20057;-85
2022/07/27 07:08:21;;;;;;;12.52;11.43;;;;;;;22.89;84.97;99781.81;5014545;28;20061;-85
2022/07/27 07:10:47;;;;;;;12.80;11.50;;;;;;;23.02;84.44;99778.38;5031735;28;20509;-86
2022/07/27 07:13:13;;;;;;;13.85;11.70;;;;;;;23.01;82.98;99777.59;5030886;28;20054;-85
2022/07/27 07:15:39;;;;;;;13.20;12.00;;;;;;;23.14;83.13;99757.91;5039230;28;20037;-86
2022/07/27 07:18:06;;;;;;;12.00;10.68;;;;;;;23.01;82.08;99757.06;5052089;28;20552;-86
2022/07/27 07:20:32;;;;;;;11.70;10.60;;;;;;;23.37;81.04;99777.50;5033948;28;20076;-86
2022/07/27 07:22:58;;;;;;;12.02;10.73;;;;;;;23.47;80.38;99773.03;5034599;28;20103;-86
2022/07/27 07:25:24;;;;;;;12.00;10.75;;;;;;;23.56;76.72;99781.94;5031214;28;20056;-86
2022/07/27 07:27:50;;;;;;;11.25;10.15;;;;;;;23.45;73.75;99786.97;5033913;28;20048;-85
2022/07/27 07:30:15;;;;;;;11.20;10.20;;;;;;;23.46;73.33;99779.97;5033276;28;20140;-86
2022/07/27 07:32:41;;;;;;;12.55;10.43;;;;;;;23.35;73.71;99782.91;5052474;28;20041;-85
2022/07/27 07:35:07;;;;;;;12.85;10.38;;;;;;;23.35;75.39;99772.34;5033940;28;20388;-86
2022/07/27 07:37:33;;;;;;;11.38;10.25;;;;;;;23.34;75.72;99778.53;5052746;28;20049;-86
2022/07/27 07:39:59;;;;;;;11.55;10.43;;;;;;;23.38;76.41;99779.00;5033996;28;20502;-86
2022/07/27 07:42:24;;;;;;;11.75;10.57;;;;;;;23.49;75.68;99767.59;5033176;28;20166;-85
2022/07/27 07:44:50;;;;;;;13.30;10.45;;;;;;;23.69;74.33;99761.44;5033540;28;20033;-85
2022/07/27 07:47:16;;;;;;;12.27;11.00;;;;;;;23.82;73.83;99761.50;5037561;28;20076;-87
2022/07/27 07:49:41;;;;;;;12.32;11.05;;;;;;;23.92;75.47;99757.00;5033850;28;20181;-87
2022/07/27 07:52:07;;;;;;;12.02;10.90;;;;;;;24.11;73.17;99759.81;5050605;28;20112;-86
2022/07/27 07:54:33;;;;;;;11.15;10.05;;;;;;;23.97;69.59;99753.31;5051723;28;20064;-85
2022/07/27 07:56:59;;;;;;;11.38;10.32;;;;;;;24.09;71.49;99766.03;5031354;28;20067;-85
2022/07/27 07:59:25;;;;;;;11.90;10.90;;;;;;;24.19;71.47;99755.09;5051404;28;20514;-85
2022/07/27 08:01:53;;;;;;;11.65;10.52;;;;;;;24.02;70.34;99766.63;5050642;28;20556;-85
2022/07/27 08:04:18;;;;;;;12.68;11.40;;;;;;;24.23;69.75;99763.28;5050993;28;20045;-86
2022/07/27 08:06:44;;;;;;;11.55;10.45;;;;;;;24.33;70.01;99764.41;5051047;28;20402;-87
2022/07/27 08:09:15;;;;;;;12.05;10.60;;;;;;;24.50;69.18;99759.25;5032479;28;20553;-85
2022/07/27 08:11:41;;;;;;;13.07;10.60;;;;;;;24.51;68.33;99760.75;5050631;28;20041;-84
2022/07/27 08:14:07;;;;;;;11.48;10.02;;;;;;;24.51;71.41;99760.75;5032228;28;20049;-84
2022/07/27 08:16:33;;;;;;;13.18;11.00;;;;;;;24.58;71.33;99765.81;5032192;28;20518;-86
2022/07/27 08:18:58;;;;;;;12.73;10.43;;;;;;;24.58;70.14;99771.50;5049462;28;20060;-86
2022/07/27 08:21:23;;;;;;;12.35;11.07;;;;;;;24.71;70.20;99771.50;5050881;28;20499;-85
2022/07/27 08:23:49;;;;;;;11.88;10.68;;;;;;;24.80;70.94;99754.09;5050121;28;20047;-85
2022/07/27 08:26:15;;;;;;;17.33;11.48;;;;;;;25.03;68.94;99757.34;5050524;28;20403;-86
2022/07/27 08:28:40;;;;;;;12.18;10.80;;;;;;;24.97;70.08;99754.59;5040486;28;20064;-85
2022/07/27 08:31:06;;;;;;;12.38;11.15;;;;;;;25.17;69.36;99758.84;5019863;28;20050;-85
2022/07/27 08:33:31;;;;;;;12.40;10.98;;;;;;;25.16;68.04;99756.56;5025237;28;20127;-85
2022/07/27 08:35:58;;;;;;;11.63;10.43;;;;;;;25.27;68.80;99750.69;5022378;28;20058;-86
2022/07/27 08:38:26;;;;;;;12.15;11.00;;;;;;;25.57;69.32;99762.47;5029223;28;20458;-85
2022/07/27 08:40:52;;;;;;;12.07;11.02;;;;;;;25.79;68.06;99756.34;5036206;28;20080;-86
2022/07/27 08:43:19;;;;;;;14.23;11.15;;;;;;;25.96;67.68;99764.50;5026382;28;20477;-86
2022/07/27 08:45:54;;;;;;;12.93;11.73;;;;;;;25.74;68.32;99762.91;5022672;28;20045;-86
2022/07/27 08:48:20;;;;;;;11.43;10.35;;;;;;;26.12;66.78;99765.44;5023680;28;20045;-86
2022/07/27 08:50:47;;;;;;;11.68;10.68;;;;;;;25.94;65.56;99770.72;5024578;28;20037;-86
2022/07/27 08:53:13;;;;;;;13.80;11.10;;;;;;;26.09;66.62;99761.59;5030883;28;20041;-86
2022/07/27 08:55:42;;;;;;;11.93;10.88;;;;;;;26.35;65.77;99757.94;5024680;28;20041;-86
2022/07/27 08:58:09;;;;;;;11.45;10.45;;;;;;;26.68;64.32;99754.28;5031560;28;20069;-86
2022/07/27 09:00:38;;;;;;;10.88;9.73;;;;;;;27.29;60.30;99761.22;5010717;28;20085;-86
2022/07/27 09:03:03;;;;;;;10.45;9.43;;;;;;;27.82;55.51;99764.34;5010772;28;20472;-86
2022/07/27 09:05:29;;;;;;;9.75;8.95;;;;;;;28.50;54.61;99760.97;5011734;28;20125;-87
2022/07/27 09:08:08;;;;;;;10.05;8.38;;;;;;;28.98;47.84;99752.63;5028979;28;20032;-86
2022/07/27 09:10:36;;;;;;;10.38;9.00;;;;;;;29.39;49.24;99754.31;5018699;28;20501;-87
2022/07/27 09:13:22;;;;;;;10.27;8.48;;;;;;;29.49;46.20;99756.00;5051531;28;20048;-87
2022/07/27 09:15:59;;;;;;;8.48;7.68;;;;;;;29.43;44.93;99760.41;5051421;28;20501;-86
2022/07/27 09:18:28;;;;;;;9.60;8.38;;;;;;;29.14;44.74;99765.56;5049872;28;20052;-86
2022/07/27 09:21:13;;;;;;;8.93;8.02;;;;;;;28.29;44.76;99774.63;5045531;28;20033;-86
2022/07/27 09:23:46;;;;;;;9.68;7.72;;;;;;;28.15;43.07;99776.09;5030926;28;20049;-86
2022/07/27 09:26:23;;;;;;;14.73;7.88;;;;;;;27.76;44.34;99775.16;5017077;28;20564;-86
2022/07/27 09:28:57;;;;;;;8.55;7.65;;;;;;;27.65;44.68;99775.50;5033619;28;20461;-86
2022/07/27 09:31:23;;;;;;;9.00;8.10;;;;;;;27.33;44.56;99772.25;5033311;28;20379;-86
2022/07/27 09:33:54;;;;;;;9.88;7.65;;;;;;;27.40;41.48;99770.75;5051124;28;20048;-86
2022/07/27 09:36:21;;;;;;;9.82;7.88;;;;;;;27.02;43.99;99776.19;5033191;28;20147;-86
2022/07/27 09:38:52;;;;;;;9.80;7.30;;;;;;;27.06;43.16;99770.91;5032780;28;20045;-86
2022/07/27 09:41:18;;;;;;;10.40;7.60;;;;;;;26.99;42.91;99772.38;5033424;28;20111;-86
2022/07/27 09:43:54;;;;;;;9.77;7.85;;;;;;;27.15;43.54;99764.72;5049802;28;20486;-86
2022/07/27 09:46:35;;;;;;;11.45;7.82;;;;;;;27.61;42.51;99769.41;5032215;28;20045;-86
2022/07/27 09:49:01;;;;;;;10.27;7.25;;;;;;;28.15;40.01;99764.69;5050082;28;20040;-87
2022/07/27 09:51:28;;;;;;;7.57;6.63;;;;;;;28.43;37.04;99758.84;5050676;28;20140;-88
2022/07/27 09:53:55;;;;;;;7.25;6.25;;;;;;;28.82;36.89;99745.41;5032113;28;20053;-88
2022/07/27 09:56:26;;;;;;;9.02;6.53;;;;;;;29.12;35.13;99739.66;5050657;28;20060;-88
2022/07/27 09:58:55;;;;;;;8.07;5.97;;;;;;;29.48;35.44;99731.59;5016175;28;20044;-88
2022/07/27 10:01:29;;;;;;;8.80;6.95;;;;;;;29.54;35.56;99723.59;5032946;28;20483;-86
2022/07/27 10:03:57;;;;;;;6.57;5.78;;;;;;;29.42;34.35;99721.72;5032705;28;20059;-88
2022/07/27 10:06:23;;;;;;;8.43;6.07;;;;;;;29.86;36.26;99722.13;5050426;28;20037;-89
2022/07/27 10:08:51;;;;;;;8.80;7.43;;;;;;;30.11;36.54;99722.97;5050306;28;20044;-88
2022/07/27 10:11:18;;;;;;;12.00;7.03;;;;;;;30.22;35.81;99719.66;5029395;28;20499;-88
2022/07/27 10:13:44;;;;;;;8.73;6.95;;;;;;;29.83;36.83;99706.13;5032380;28;20045;-88
2022/07/27 10:16:19;;;;;;;7.70;6.90;;;;;;;30.08;37.06;99712.69;5032559;28;20053;-88
2022/07/27 10:19:14;;;;;;;8.82;6.97;;;;;;;30.36;33.24;99708.69;5030306;28;20084;-88
2022/07/27 10:21:45;;;;;;;8.63;6.10;;;;;;;29.91;33.31;99692.59;5037591;28;20041;-88
2022/07/27 10:24:27;;;;;;;7.18;6.22;;;;;;;30.03;34.36;99694.41;5056631;28;20044;-88
2022/07/27 10:26:53;;;;;;;9.15;5.75;;;;;;;30.25;33.20;99697.72;5021561;28;20037;-88
2022/07/27 10:29:20;;;;;;;6.55;5.78;;;;;;;30.68;32.80;99691.50;5033857;28;20033;-87
2022/07/27 10:31:52;;;;;;;7.82;6.00;;;;;;;30.66;33.47;99699.13;5055044;28;20059;-87
2022/07/27 10:34:39;;;;;;;7.10;6.03;;;;;;;30.67;31.80;99692.06;5056204;28;20107;-88
2022/07/27 10:37:13;;;;;;;6.90;6.18;;;;;;;30.28;32.67;99700.19;5053950;28;20049;-86
2022/07/27 10:42:39;;;;;;;7.80;5.90;;;;;;;30.69;31.91;99700.84;5047904;28;20357;-89
2022/07/27 10:45:07;;;;;;;8.13;5.55;;;;;;;30.97;33.10;99697.53;5057090;28;20037;-86
2022/07/27 10:47:44;;;;;;;8.95;5.93;;;;;;;31.26;30.72;99697.81;5039670;28;20482;-88
2022/07/27 10:50:15;;;;;;;6.57;5.25;;;;;;;31.29;30.46;99683.06;5036571;28;20056;-88
2022/07/27 10:52:46;;;;;;;8.10;5.67;;;;;;;30.98;30.67;99678.97;5052011;28;20037;-88
2022/07/27 10:55:30;;;;;;;6.22;4.50;;;;;;;30.81;29.15;99681.84;5043424;28;20049;-88
2022/07/27 10:57:56;;;;;;;7.30;4.50;;;;;;;30.97;31.36;99674.63;5054742;28;20086;-87
2022/07/27 11:00:47;;;;;;;5.90;4.10;;;;;;;31.43;29.31;99674.88;5054700;28;20029;-87
2022/07/27 11:03:20;;;;;;;7.68;4.20;;;;;;;31.65;30.31;99673.09;5054104;28;20045;-86
2022/07/27 11:05:56;;;;;;;7.03;4.53;;;;;;;31.73;26.16;99679.50;5055163;28;20033;-88
2022/07/27 11:08:25;;;;;;;4.97;3.28;;;;;;;31.68;25.98;99677.66;5049653;28;20526;-88
2022/07/27 11:10:51;;;;;;;5.95;4.03;;;;;;;31.93;27.40;99669.66;5035821;28;20441;-87
2022/07/27 11:13:18;;;;;;;5.65;4.15;;;;;;;31.55;26.22;99669.41;5055191;28;20056;-88
2022/07/27 11:15:55;;;;;;;4.85;4.05;;;;;;;31.90;25.92;99668.75;5019806;28;20040;-88
2022/07/27 11:18:27;;;;;;;6.38;3.97;;;;;;;31.38;27.66;99662.31;5054271;28;20090;-87
2022/07/27 11:21:14;;;;;;;4.45;4.03;;;;;;;31.79;26.52;99666.41;5055993;28;20403;-88
2022/07/27 11:23:39;;;;;;;4.60;3.85;;;;;;;31.81;27.19;99657.22;5038006;28;20122;-87
2022/07/27 11:26:05;;;;;;;7.47;3.97;;;;;;;31.87;30.90;99655.56;5038325;28;20449;-87